Tiempo atmosférico en la estación meteorológica de Barbadillo, Salamanca (817 m.)



Fecha
DESCASC
Temp. máxima en grados centígrados (hora)
DESCASC
Temp. mínima en grados centígrados (hora)
DESCASC
Temp. media en grados centígrados
DESCASC
Racha de viento máxima en m/sg (hora)
DESCASC
Velocidad máxima media en intervalos de 10 minutos(hora)
DESCASC
Precipitaciones diarias en mm
DESCASC
Precipitaciones de 00:00 a 06:00 en mm
DESCASC
Precipitaciones de 06:00 a 12:00 en mm
DESCASC
Precipitaciones de 12:00 a 18:00 en mm
DESCASC
Precipitaciones de 18:00 a 24:00 en mm
DESCASC
13-10-2019 20.5 (15:40) 12.1 (09:10) 16.3 12.78 (13:10) 7.78 (16:30) 0 0 0 0 0
12-10-2019 26.3 (15:50) 14.3 (00:00) 20.3 15.56 (16:20) 10.28 (16:20) 0 0 0 0 0
10-10-2019 24.1 (17:10) 6.5 (00:00) 15.3 6.67 (12:50) 4.72 (14:00) 0 0 0 0 0
09-10-2019 22.4 (15:50) 9 (00:00) 15.7 7.5 (13:10) 3.33 (13:10) 0 0 0 0 0
08-10-2019 28.4 (15:30) 7.4 (00:00) 17.9 9.44 (15:30) 5.28 (15:00) 0 0 0 0 0
07-10-2019 27.6 (18:20) 6.7 (00:00) 17.2 5.28 (13:30) 3.06 (13:00) 0 0 0 0 0
06-10-2019 24.9 (17:50) 4.7 (00:00) 14.8 5.28 (18:20) 2.5 (17:40) 0 0 0 0 0
05-10-2019 24.2 (17:30) 5.8 (08:10) 15 8.33 (15:40) 5 (16:00) 0 0 0 0 0
04-10-2019 24.5 (17:30) 8.8 (00:00) 16.7 6.39 (15:20) 3.89 (16:40) 0 0 0 0 0
03-10-2019 25.3 (18:10) 4.4 (00:00) 14.8 8.06 (16:10) 4.17 (16:50) 0 0 0 0 0
02-10-2019 20.5 (17:50) 7.2 (00:00) 13.8 6.11 (15:50) 3.06 (03:10) 0 0 0 0 0
01-10-2019 22.3 (17:50) 13.6 (00:00) 17.9 10 (18:10) 6.11 (15:00) 0 0 0 0 0
30-09-2019 28.4 (16:30) 8.3 (00:00) 18.3 9.72 (17:50) 5.83 (19:30) 0 0 0 0 0
29-09-2019 27.4 (17:00) 6.9 (00:00) 17.1 8.61 (13:00) 5.83 (13:30) 0 0 0 0 0
28-09-2019 27.9 (17:50) 5.5 (00:00) 16.7 6.39 (18:10) 3.61 (18:10) 0 0 0 0 0
27-09-2019 24.6 (16:50) 6.1 (00:00) 15.4 8.06 (16:50) 4.44 (15:50) 0 0 0 0 0
26-09-2019 25.9 (17:00) 8 (00:00) 16.9 8.89 (15:40) 5.56 (15:20) 0 0 0 0 0
25-09-2019 21.7 (18:10) 7.6 (00:00) 14.7 5.28 (17:40) 3.33 (17:10) 0 0 0 0 0
24-09-2019 21.7 (14:50) 7.9 (00:00) 14.8 14.17 (17:50) 7.78 (17:30) 0.2 0 0 0.2 0
23-09-2019 22.8 (16:40) 7.6 (00:00) 15.2 8.61 (15:40) 4.72 (17:50) 0 0 0 0 0
22-09-2019 19.5 (17:10) 9.7 (00:00) 14.6 13.61 (01:50) 6.39 (01:50) 7.2 7 0 0.2 0
21-09-2019 18.9 (14:40) 14.4 (00:00) 16.6 13.61 (15:20) 9.17 (15:00) 1.4 0 0.6 0 0.8
20-09-2019 25 (16:20) 12.7 (00:00) 18.8 10.83 (18:30) 7.22 (18:30) 0 0 0 0 0
19-09-2019 27 (16:00) 9.8 (00:00) 18.4 8.33 (12:50) 3.89 (13:10) 0 0 0 0 0
18-09-2019 25.4 (18:10) 11.4 (00:00) 18.4 5.56 (19:40) 3.61 (19:40) 0 0 0 0 0
17-09-2019 25.8 (15:10) 11.9 (00:00) 18.8 11.39 (21:20) 6.67 (18:40) 2.4 0 0 0.6 1.8
16-09-2019 22.1 (17:50) 11 (00:00) 16.6 6.39 (17:50) 3.89 (18:20) 0 0 0 0 0

Gráficas

Temp. máximas Temp. mínimas Temp. medias Precipitaciones Rachas de viento máximas Velocidades máximas media en intervalos de 10 minutos

Datos horarios

Fecha y hora oficial Temperatura (ºC) Velocidad del viento (km/h) Dirección del viento Racha (km/h) Dirección de racha Precipitación (mm) Presión (hPa) Tendencia (hPa) Humedad (%)
2019-10-15 23:00:00 11 12 Sur 22 Sudoeste 0 -- -- 73
2019-10-15 22:00:00 11 12 Sur 16 Sur 0 -- -- 73
2019-10-15 21:00:00 10.9 8 Sur 15 Sur 0 -- -- 74
2019-10-15 20:00:00 11.9 7 Sudoeste 19 Sudoeste 0 -- -- 64
2019-10-15 19:00:00 13.4 12 Sudoeste 26 Sudoeste 0 -- -- 56
2019-10-15 18:00:00 13.5 12 Sudoeste 30 Oeste 0 -- -- 57
2019-10-15 17:00:00 13.5 13 Oeste 27 Oeste 0 -- -- 58
2019-10-15 16:00:00 13.9 14 Sudoeste 35 Oeste 0 -- -- 59
2019-10-15 15:00:00 12.9 16 Oeste 27 Oeste 0 -- -- 62
2019-10-15 14:00:00 12.3 13 Oeste 26 Sudoeste 0 -- -- 65
2019-10-15 13:00:00 11.9 15 Sudoeste 25 Sudoeste 0 -- -- 67
2019-10-15 12:00:00 11.1 13 Oeste 22 Oeste 0 -- -- 75
2019-10-15 11:00:00 9.3 13 Sudoeste 24 Sudoeste 0 -- -- 83
2019-10-15 10:00:00 7.3 12 Sudoeste 17 Sudoeste 0 -- -- 93
2019-10-15 09:00:00 5.1 8 Sudoeste 10 Sur 0 -- -- 95
2019-10-15 08:00:00 5.1 7 Sudoeste 13 Sur 0 -- -- 94
2019-10-15 07:00:00 5.7 8 Sudoeste 17 Sudoeste 0 -- -- 93
2019-10-15 06:00:00 5.7 9 Sudoeste 15 Sudoeste 0 -- -- 93
2019-10-15 05:00:00 5.6 10 Sudoeste 18 Sudoeste 0 -- -- 91
2019-10-15 04:00:00 5.2 8 Sudoeste 12 Sudoeste 0 -- -- 91
2019-10-15 03:00:00 5.6 3 Sudoeste 18 Sudoeste 0 -- -- 88
2019-10-15 02:00:00 5.9 12 Oeste 24 Sudoeste 0 -- -- 88
2019-10-15 01:00:00 6 14 Sudoeste 19 Sudoeste 0 -- -- 86
2019-10-15 00:00:00 6.7 9 Sudoeste 20 Sudoeste 0 -- -- 83
2019-10-14 23:00:00 7.3 12 Sudoeste 26 Oeste 0 -- -- 81
2019-10-14 22:00:00 7.9 11 Oeste 33 Oeste 0 -- -- 82
2019-10-14 21:00:00 8.6 12 Oeste 25 Oeste 0.4 -- -- 87
2019-10-14 20:00:00 9.5 17 Oeste 31 Oeste 0 -- -- 83
2019-10-14 19:00:00 9.9 16 Oeste 36 Oeste 0 -- -- 82
2019-10-14 18:00:00 9.5 17 Oeste 39 Oeste 0 -- -- 81
2019-10-14 17:00:00 9.8 19 Sudoeste 56 Oeste 0.4 -- -- 85
2019-10-14 16:00:00 10.2 15 Sudoeste 49 Oeste 3.8 -- -- 91
2019-10-14 15:00:00 11.1 18 Sudoeste 34 Oeste 1 -- -- 89
2019-10-14 14:00:00 11.6 18 Sudoeste 44 Sur 1.8 -- -- 87
2019-10-14 13:00:00 13.8 27 Sudoeste 46 Sur 0 -- -- 67
2019-10-14 12:00:00 12.9 23 Sudoeste 37 Sudoeste 0 -- -- 70
2019-10-14 11:00:00 11.5 16 Sudoeste 27 Sudoeste 0.2 -- -- 87
2019-10-14 10:00:00 10.4 10 Sudoeste 19 Sudoeste 1.4 -- -- 93
2019-10-14 09:00:00 10.1 14 Oeste 41 Oeste 2.4 -- -- 91
2019-10-14 08:00:00 12.6 26 Sudoeste 57 Sudoeste 2.2 -- -- 82
2019-10-14 07:00:00 14.3 13 Sudoeste 24 Sudoeste 0 -- -- 77
2019-10-14 06:00:00 14.8 12 Sudoeste 21 Sudoeste 0 -- -- 73
2019-10-14 05:00:00 14 6 Sudoeste 16 Sudoeste 0 -- -- 71
2019-10-14 04:00:00 14.4 7 Sur 13 Sur 0 -- -- 68
2019-10-14 03:00:00 14.9 8 Sur 15 Sur 0 -- -- 66
2019-10-14 02:00:00 15.4 11 Sur 18 Sudeste 0 -- -- 65
2019-10-14 01:00:00 14.6 7 Sur 13 Sur 0 -- -- 66
2019-10-14 00:00:00 16.2 12 Sur 18 Sur 0 -- -- 62
2019-10-13 23:00:00 17 12 Sudoeste 21 Sudoeste 0 -- -- 59
2019-10-13 22:00:00 16 14 Sur 18 Sur 0 -- -- 63
2019-10-13 21:00:00 16.1 5 Sur 16 Sur 0 -- -- 61
2019-10-13 20:00:00 17.9 12 Sur 36 Sur 0 -- -- 57
2019-10-13 19:00:00 19.3 22 Sudoeste 36 Sur 0 -- -- 53
2019-10-13 18:00:00 19.8 21 Sur 37 Sur 0 -- -- 51
2019-10-13 17:00:00 19.9 22 Sur 40 Sudoeste 0 -- -- 50
2019-10-13 16:00:00 20.3 24 Sur 39 Sudoeste 0 -- -- 49
2019-10-13 15:00:00 19.9 27 Sur 43 Sur 0 -- -- 51
2019-10-13 14:00:00 19.7 21 Sudoeste 46 Sudoeste 0 -- -- 50
2019-10-13 13:00:00 18.1 24 Sudoeste 39 Sur 0 -- -- 57
2019-10-13 12:00:00 17 22 Sudoeste 35 Sur 0 -- -- 62
2019-10-13 11:00:00 15.5 24 Sudoeste 39 Sudoeste 0 -- -- 69
2019-10-13 10:00:00 14.3 23 Sur 36 Sur 0 -- -- 74
2019-10-13 09:00:00 12.2 6 Norte 29 Sudoeste 0 -- -- 82
2019-10-13 08:00:00 13.7 20 Sudoeste 34 Sudoeste 0 -- -- 78
2019-10-13 07:00:00 14.3 20 Sudoeste 35 Sudoeste 0 -- -- 76
2019-10-13 06:00:00 14.8 11 Sudoeste 31 Sur 0 -- -- 76
2019-10-13 05:00:00 15.7 17 Sudoeste 30 Sur 0 -- -- 77
2019-10-13 04:00:00 16.1 22 Sur 36 Sur 0 -- -- 78
2019-10-13 03:00:00 16.9 18 Sudoeste 36 Sudoeste 0 -- -- 76
2019-10-13 02:00:00 17.6 17 Sur 30 Sur 0 -- -- 77
2019-10-13 01:00:00 18.7 15 Sur 32 Sur 0 -- -- 68
2019-10-13 00:00:00 19.6 18 Sur 32 Sur 0 -- -- 56
2019-10-12 23:00:00 20.7 18 Sur 33 Sur 0 -- -- 47
2019-10-12 22:00:00 20.5 14 Sur 26 Sur 0 -- -- 47
2019-10-12 21:00:00 21.8 12 Sur 24 Sur 0 -- -- 41
2019-10-12 20:00:00 23.3 18 Sur 37 Sudoeste 0 -- -- 38
2019-10-12 19:00:00 24.3 19 Sur 45 Sur 0 -- -- 36
2019-10-12 18:00:00 25.2 34 Sur 55 Sur 0 -- -- 34
2019-10-12 17:00:00 25.8 36 Sur 56 Sur 0 -- -- 32
2019-10-12 16:00:00 25.9 35 Sur 50 Sur 0 -- -- 34
2019-10-12 15:00:00 24.8 33 Sur 51 Sudoeste 0 -- -- 38
2019-10-12 14:00:00 24.2 31 Sur 49 Sur 0 -- -- 40
2019-10-12 13:00:00 23 29 Sur 54 Sur 0 -- -- 42
2019-10-12 12:00:00 22.3 28 Sudoeste 44 Sudoeste 0 -- -- 45
2019-10-12 11:00:00 19.9 17 Sudoeste 32 Sudoeste 0 -- -- 52
2019-10-12 10:00:00 16.4 3 Sudeste 6 Nordeste 0 -- -- 67
2019-10-12 09:00:00 16.8 4 Noroeste 10 Oeste 0 -- -- 66
2019-10-12 08:00:00 18.1 5 Sur 26 Sudoeste 0 -- -- 62
2019-10-12 07:00:00 18.5 14 Sudoeste 23 Sur 0 -- -- 61
2019-10-12 06:00:00 18.8 15 Sudoeste 30 Sur 0 -- -- 60
2019-10-12 05:00:00 19.1 17 Sudoeste 32 Sur 0 -- -- 58
2019-10-12 04:00:00 19.4 15 Sur 28 Sur 0 -- -- 57
2019-10-12 03:00:00 20.3 12 Sudoeste 28 Sudoeste 0 -- -- 52
2019-10-12 02:00:00 20.5 15 Sudoeste 31 Sudoeste 0 -- -- 51
2019-10-12 01:00:00 20 9 Sur 20 Sur 0 -- -- 54
2019-10-12 00:00:00 14.3 6 Sur 10 Sudoeste 0 -- -- 71
2019-10-11 23:00:00 14.7 0 Calma 4 Este 0 -- -- 67
2019-10-11 22:00:00 15.9 2 Sudeste 8 Sur 0 -- -- 64
2019-10-11 21:00:00 18.4 6 Sur 9 Sudoeste 0 -- -- 58
2019-10-11 20:00:00 21.9 6 Sur 31 Sur 0 -- -- 51
2019-10-11 19:00:00 23.8 21 Sudoeste 34 Sur 0 -- -- 46
2019-10-11 18:00:00 25.4 23 Sur 45 Sur 0 -- -- 40
2019-10-11 17:00:00 25.8 26 Sudoeste 41 Sudoeste 0 -- -- 42
2019-10-11 16:00:00 27.2 21 Sudoeste 35 Sudoeste 0 -- -- 39
2019-10-11 15:00:00 26.9 19 Sudoeste 33 Sur 0 -- -- 40
2019-10-11 14:00:00 26.3 22 Sudoeste 34 Sudoeste 0 -- -- 40
2019-10-11 13:00:00 26.6 16 Sudoeste 27 Sudoeste 0 -- -- 39
2019-10-11 12:00:00 23.2 2 Norte 6 Nordeste 0 -- -- 43
2019-10-11 11:00:00 18.1 0 Calma 4 Oeste 0 -- -- 59
2019-10-11 10:00:00 12.3 0 Calma 4 Sur 0 -- -- 72
2019-10-11 09:00:00 8.1 4 Sur 6 Sur 0 -- -- 82
2019-10-11 08:00:00 7.7 3 Sur 5 Sur 0 -- -- 81
2019-10-11 07:00:00 7.8 0 Calma 6 Sur 0 -- -- 78
2019-10-11 06:00:00 7.9 4 Sur 6 Sur 0 -- -- 78
2019-10-11 05:00:00 8 5 Sur 8 Sur 0 -- -- 76
2019-10-11 04:00:00 7.9 0 Calma 6 Norte 0 -- -- 75
2019-10-11 03:00:00 8.5 2 Sur 5 Sur 0 -- -- 72
2019-10-11 02:00:00 8.5 5 Sur 7 Sur 0 -- -- 72
2019-10-11 01:00:00 8.9 4 Sur 7 Sur 0 -- -- 70
2019-10-11 00:00:00 10.1 3 Sur 4 Sur 0 -- -- 64
2019-10-10 23:00:00 11.1 2 Sur 5 Sur 0 -- -- 61
2019-10-10 22:00:00 12.6 3 Sur 6 Sur 0 -- -- 55
2019-10-10 21:00:00 15.7 4 Sur 8 Sur 0 -- -- 48
2019-10-10 20:00:00 21.1 3 Este 10 Este 0 -- -- 40
2019-10-10 19:00:00 23.7 8 Este 17 Este 0 -- -- 34
2019-10-10 18:00:00 24 7 Este 18 Este 0 -- -- 34
2019-10-10 17:00:00 24 9 Nordeste 19 Este 0 -- -- 34
2019-10-10 16:00:00 23.5 9 Nordeste 21 Nordeste 0 -- -- 36
2019-10-10 15:00:00 22.4 9 Nordeste 24 Este 0 -- -- 39
2019-10-10 14:00:00 21.1 17 Este 23 Nordeste 0 -- -- 40
2019-10-10 13:00:00 18.3 13 Este 24 Este 0 -- -- 50
2019-10-10 12:00:00 15.4 16 Este 22 Este 0 -- -- 60
2019-10-10 11:00:00 12.6 10 Este 21 Este 0 -- -- 69
2019-10-10 10:00:00 10.4 10 Nordeste 19 Nordeste 0 -- -- 75
2019-10-10 09:00:00 6.5 2 Norte 7 Nordeste 0 -- -- 84
2019-10-10 08:00:00 6.8 3 Este 7 Este 0 -- -- 83
2019-10-10 07:00:00 7.3 3 Este 5 Este 0 -- -- 82
2019-10-10 06:00:00 8.6 3 Nordeste 10 Este 0 -- -- 76
2019-10-10 05:00:00 9.4 3 Nordeste 11 Norte 0 -- -- 75
2019-10-10 04:00:00 10.6 5 Nordeste 16 Nordeste 0 -- -- 71
2019-10-10 03:00:00 12 12 Este 17 Nordeste 0 -- -- 67
2019-10-10 02:00:00 12.3 10 Nordeste 19 Este 0 -- -- 64
2019-10-10 01:00:00 12.4 13 Este 22 Este 0 -- -- 59
2019-10-10 00:00:00 9 3 Sur 6 Sur 0 -- -- 60
2019-10-09 23:00:00 10 4 Sur 6 Sur 0 -- -- 54
2019-10-09 22:00:00 12.5 0 Calma 4 Norte 0 -- -- 48
2019-10-09 21:00:00 16.3 2 Norte 9 Norte 0 -- -- 39
2019-10-09 20:00:00 19.3 5 Norte 14 Norte 0 -- -- 31
2019-10-09 19:00:00 21.4 10 Norte 19 Norte 0 -- -- 31
2019-10-09 18:00:00 22.1 6 Norte 21 Noroeste 0 -- -- 33
2019-10-09 17:00:00 22.1 9 Norte 22 Nordeste 0 -- -- 36
2019-10-09 16:00:00 22.2 9 Norte 19 Nordeste 0 -- -- 40
2019-10-09 15:00:00 21.9 10 Nordeste 20 Nordeste 0 -- -- 43
2019-10-09 14:00:00 20.5 9 Este 27 Este 0 -- -- 49
2019-10-09 13:00:00 19.1 9 Nordeste 21 Este 0 -- -- 59
2019-10-09 12:00:00 17.4 9 Nordeste 18 Este 0 -- -- 68
2019-10-09 11:00:00 15.3 10 Nordeste 19 Nordeste 0 -- -- 77
2019-10-09 10:00:00 13.9 5 Norte 12 Norte 0 -- -- 82
2019-10-09 09:00:00 13.1 3 Norte 11 Noroeste 0 -- -- 88
2019-10-09 08:00:00 14.5 2 Norte 17 Noroeste 0 -- -- 82
2019-10-09 07:00:00 15.6 11 Noroeste 18 Noroeste 0 -- -- 86
2019-10-09 06:00:00 16 6 Sudoeste 10 Oeste 0 -- -- 85
2019-10-09 05:00:00 15.7 3 Oeste 6 Oeste 0 -- -- 86
2019-10-09 04:00:00 14.9 5 Sudoeste 8 Oeste 0 -- -- 88
2019-10-09 03:00:00 15.1 2 Noroeste 12 Oeste 0 -- -- 83
2019-10-09 02:00:00 15.6 5 Oeste 12 Oeste 0 -- -- 81
2019-10-09 01:00:00 15.2 5 Sudoeste 7 Sudoeste 0 -- -- 77
2019-10-09 00:00:00 16 5 Sudoeste 13 Sur 0 -- -- 69
2019-10-08 23:00:00 15.9 4 Sur 7 Sur 0 -- -- 66
2019-10-08 22:00:00 17.8 3 Sur 5 Sur 0 -- -- 58
2019-10-08 21:00:00 21.8 2 Oeste 15 Noroeste 0 -- -- 49
2019-10-08 20:00:00 24.3 9 Noroeste 25 Noroeste 0 -- -- 43
2019-10-08 19:00:00 26.8 13 Noroeste 23 Oeste 0 -- -- 40
2019-10-08 18:00:00 28.1 13 Oeste 26 Oeste 0 -- -- 37
2019-10-08 17:00:00 28.4 16 Oeste 28 Oeste 0 -- -- 34
2019-10-08 16:00:00 28.2 15 Oeste 34 Sudoeste 0 -- -- 34
2019-10-08 15:00:00 28 19 Oeste 29 Oeste 0 -- -- 32
2019-10-08 14:00:00 27 12 Sudoeste 22 Sudoeste 0 -- -- 33
2019-10-08 13:00:00 25.4 12 Oeste 18 Oeste 0 -- -- 37
2019-10-08 12:00:00 23.4 9 Oeste 14 Oeste 0 -- -- 41
2019-10-08 11:00:00 20 5 Oeste 10 Sudoeste 0 -- -- 48
2019-10-08 10:00:00 13.6 4 Sur 6 Sur 0 -- -- 63
2019-10-08 09:00:00 8.2 5 Sur 7 Sur 0 -- -- 76
2019-10-08 08:00:00 7.5 5 Sur 6 Sur 0 -- -- 75
2019-10-08 07:00:00 7.8 3 Sudeste 5 Sudeste 0 -- -- 71
2019-10-08 06:00:00 8.1 4 Sur 5 Sudeste 0 -- -- 70
2019-10-08 05:00:00 8.6 2 Sudeste 6 Sur 0 -- -- 67
2019-10-08 04:00:00 9.5 5 Sur 10 Sur 0 -- -- 65
2019-10-08 03:00:00 9.7 3 Sudeste 9 Sur 0 -- -- 64
2019-10-08 02:00:00 10.4 8 Sur 10 Sur 0 -- -- 63
2019-10-08 01:00:00 11.5 0 Calma 6 Sur 0 -- -- 58
2019-10-08 00:00:00 12.1 6 Sur 8 Sur 0 -- -- 57
2019-10-07 23:00:00 13.7 5 Sur 6 Sur 0 -- -- 53
2019-10-07 22:00:00 16.1 4 Sur 7 Sur 0 -- -- 47
2019-10-07 21:00:00 19.2 5 Sur 9 Sur 0 -- -- 40
2019-10-07 20:00:00 24.6 0 Calma 11 Este 0 -- -- 31
2019-10-07 19:00:00 27.1 6 Este 11 Este 0 -- -- 26
2019-10-07 18:00:00 27.4 5 Noroeste 12 Norte 0 -- -- 27
2019-10-07 17:00:00 27.1 6 Noroeste 15 Norte 0 -- -- 26
2019-10-07 16:00:00 26.4 4 Noroeste 15 Noroeste 0 -- -- 24
2019-10-07 15:00:00 25.6 3 Noroeste 13 Este 0 -- -- 25
2019-10-07 14:00:00 24.4 9 Este 19 Este 0 -- -- 28
2019-10-07 13:00:00 22.8 11 Este 18 Este 0 -- -- 30
2019-10-07 12:00:00 20.2 4 Este 9 Este 0 -- -- 45
2019-10-07 11:00:00 16.3 3 Sudeste 6 Este 0 -- -- 57
2019-10-07 10:00:00 11.2 0 Calma 2 Sur 0 -- -- 74
2019-10-07 09:00:00 7.2 0 Calma 4 Sur 0 -- -- 82
2019-10-07 08:00:00 6.9 4 Sur 6 Sur 0 -- -- 82
2019-10-07 07:00:00 7.3 3 Sur 9 Sur 0 -- -- 80
2019-10-07 06:00:00 7.6 4 Sur 9 Sur 0 -- -- 79
2019-10-07 05:00:00 8 3 Sur 6 Sur 0 -- -- 77
2019-10-07 04:00:00 8.7 2 Sur 6 Sur 0 -- -- 74
2019-10-07 03:00:00 9.5 4 Sur 8 Sudeste 0 -- -- 71
2019-10-07 02:00:00 10.1 5 Sur 10 Sur 0 -- -- 69
2019-10-07 01:00:00 10.4 4 Sur 8 Sur 0 -- -- 66
2019-10-07 00:00:00 11.6 5 Sur 9 Sur 0 -- -- 62
2019-10-06 23:00:00 12.5 4 Sur 8 Sudeste 0 -- -- 59
2019-10-06 22:00:00 14.1 5 Sudeste 8 Sudeste 0 -- -- 55
2019-10-06 21:00:00 18.1 4 Sur 9 Noroeste 0 -- -- 45
2019-10-06 20:00:00 22 6 Noroeste 10 Noroeste 0 -- -- 39
2019-10-06 19:00:00 24.3 9 Noroeste 19 Noroeste 0 -- -- 32
2019-10-06 18:00:00 24.7 6 Noroeste 15 Oeste 0 -- -- 33
2019-10-06 17:00:00 24.3 3 Este 10 Oeste 0 -- -- 35
2019-10-06 16:00:00 24 4 Sudeste 13 Norte 0 -- -- 37
2019-10-06 15:00:00 22.5 7 Norte 17 Norte 0 -- -- 39
2019-10-06 14:00:00 21.2 5 Nordeste 14 Nordeste 0 -- -- 47
2019-10-06 13:00:00 19 6 Nordeste 14 Este 0 -- -- 53
2019-10-06 12:00:00 16.3 6 Norte 13 Noroeste 0 -- -- 67
2019-10-06 11:00:00 13.3 4 Norte 8 Noroeste 0 -- -- 80
2019-10-06 10:00:00 8.8 0 Calma 6 Sur 0 -- -- 90
2019-10-06 09:00:00 5.4 4 Sur 8 Sur 0 -- -- 91
2019-10-06 08:00:00 4.7 3 Sudeste 5 Sudeste 0 -- -- 87
2019-10-06 07:00:00 5.9 0 Calma 3 Sudoeste 0 -- -- 87
2019-10-06 06:00:00 6.6 0 Calma 4 Sur 0 -- -- 84
2019-10-06 05:00:00 7.4 4 Sur 9 Sur 0 -- -- 86
2019-10-06 04:00:00 7.3 5 Sur 10 Sur 0 -- -- 84
2019-10-06 03:00:00 7.8 4 Sur 7 Sur 0 -- -- 78
2019-10-06 02:00:00 8.6 3 Sudeste 8 Sur 0 -- -- 74
2019-10-06 01:00:00 10 5 Sudoeste 10 Sur 0 -- -- 70
2019-10-06 00:00:00 10.1 4 Sur 8 Sur 0 -- -- 70
2019-10-05 23:00:00 11 4 Sudoeste 6 Sudoeste 0 -- -- 64
2019-10-05 22:00:00 13.3 4 Sudeste 10 Oeste 0 -- -- 56
2019-10-05 21:00:00 17.4 6 Oeste 12 Oeste 0 -- -- 46
2019-10-05 20:00:00 20.4 9 Oeste 22 Oeste 0 -- -- 38
2019-10-05 19:00:00 23.1 15 Oeste 27 Sudoeste 0 -- -- 35
2019-10-05 18:00:00 24.2 16 Oeste 26 Oeste 0 -- -- 34
2019-10-05 17:00:00 24.1 17 Oeste 28 Sudoeste 0 -- -- 41
2019-10-05 16:00:00 24.1 18 Oeste 30 Sudoeste 0 -- -- 47
2019-10-05 15:00:00 23.6 15 Oeste 25 Sudoeste 0 -- -- 46
2019-10-05 14:00:00 22.5 10 Sudoeste 19 Sudoeste 0 -- -- 51
2019-10-05 13:00:00 20.1 5 Norte 10 Nordeste 0 -- -- 63
2019-10-05 12:00:00 17.4 4 Noroeste 9 Norte 0 -- -- 74
2019-10-05 11:00:00 13.7 3 Noroeste 5 Noroeste 0 -- -- 92
2019-10-05 10:00:00 9.5 0 Calma 5 Sudoeste 0 -- -- 97
2019-10-05 09:00:00 6.8 3 Sur 6 Sur 0 -- -- 95
2019-10-05 08:00:00 5.9 4 Sur 6 Sur 0 -- -- 90
2019-10-05 07:00:00 6.5 3 Sur 4 Sur 0 -- -- 89
2019-10-05 06:00:00 7.1 4 Sur 5 Sur 0 -- -- 90
2019-10-05 05:00:00 7.7 3 Sur 6 Sur 0 -- -- 87
2019-10-05 04:00:00 8.5 3 Sur 5 Sur 0 -- -- 87
2019-10-05 03:00:00 9.1 4 Sur 7 Sur 0 -- -- 85
2019-10-05 02:00:00 9.4 5 Sur 8 Sur 0 -- -- 83
2019-10-05 01:00:00 10.4 4 Sur 6 Sur 0 -- -- 81
2019-10-05 00:00:00 11.3 5 Sur 11 Sur 0 -- -- 78
2019-10-04 23:00:00 12.4 4 Sur 9 Sur 0 -- -- 73
2019-10-04 22:00:00 14.8 4 Sur 6 Sur 0 -- -- 67
2019-10-04 21:00:00 18.8 3 Oeste 12 Noroeste 0 -- -- 56
2019-10-04 20:00:00 21.8 7 Noroeste 20 Oeste 0 -- -- 50
2019-10-04 19:00:00 23.9 13 Oeste 22 Oeste 0 -- -- 44
2019-10-04 18:00:00 24.3 10 Oeste 22 Sudoeste 0 -- -- 44
2019-10-04 17:00:00 24.1 6 Oeste 22 Sudoeste 0 -- -- 47
2019-10-04 16:00:00 23.3 13 Sudoeste 23 Oeste 0 -- -- 49
2019-10-04 15:00:00 21.7 11 Oeste 19 Sudoeste 0 -- -- 58
2019-10-04 14:00:00 20.6 5 Norte 20 Oeste 0 -- -- 66
2019-10-04 13:00:00 17.6 8 Oeste 18 Oeste 0 -- -- 78
2019-10-04 12:00:00 15.8 11 Oeste 16 Oeste 0 -- -- 88
2019-10-04 11:00:00 14.5 5 Noroeste 10 Oeste 0 -- -- 97
2019-10-04 10:00:00 11.4 2 Sudeste 4 Sur 0 -- -- 95
2019-10-04 09:00:00 9.1 0 Calma 3 Sur 0 -- -- 93
2019-10-04 08:00:00 9.1 3 Sur 7 Sur 0 -- -- 92
2019-10-04 07:00:00 9 5 Sur 7 Sur 0 -- -- 90
2019-10-04 06:00:00 9.3 3 Sur 6 Sur 0 -- -- 89
2019-10-04 05:00:00 9.6 4 Sur 6 Sur 0 -- -- 85
2019-10-04 04:00:00 10.9 2 Sur 4 Sur 0 -- -- 83
2019-10-04 03:00:00 11.9 2 Sudoeste 8 Sur 0 -- -- 82
2019-10-04 02:00:00 12.5 4 Sudoeste 9 Sudoeste 0 -- -- 77
2019-10-04 01:00:00 13.3 8 Sur 9 Sudoeste 0 -- -- 71
2019-10-04 00:00:00 14.5 4 Sudoeste 11 Oeste 0 -- -- 62
2019-10-03 23:00:00 13.6 6 Oeste 10 Sudoeste 0 -- -- 56
2019-10-03 22:00:00 14.8 5 Sur 9 Sudeste 0 -- -- 47
2019-10-03 21:00:00 18.4 3 Sudoeste 8 Oeste 0 -- -- 39
2019-10-03 20:00:00 22.3 8 Oeste 14 Oeste 0 -- -- 31
2019-10-03 19:00:00 24.8 9 Oeste 19 Sudoeste 0 -- -- 27
2019-10-03 18:00:00 25.1 9 Oeste 24 Oeste 0 -- -- 25
2019-10-03 17:00:00 25 14 Oeste 29 Oeste 0 -- -- 29
2019-10-03 16:00:00 24.4 13 Oeste 26 Noroeste 0 -- -- 32
2019-10-03 15:00:00 23 10 Oeste 24 Noroeste 0 -- -- 36
2019-10-03 14:00:00 21.5 11 Oeste 23 Oeste 0 -- -- 41
2019-10-03 13:00:00 20.4 8 Oeste 18 Oeste 0 -- -- 41
2019-10-03 12:00:00 18.3 5 Sudoeste 10 Sur 0 -- -- 49
2019-10-03 11:00:00 14.9 6 Oeste 11 Noroeste 0 -- -- 60
2019-10-03 10:00:00 9.3 2 Sudeste 4 Sur 0 -- -- 78
2019-10-03 09:00:00 4.7 0 Calma 5 Sur 0 -- -- 87
2019-10-03 08:00:00 4.5 4 Sur 8 Sur 0 -- -- 86
2019-10-03 07:00:00 4.8 4 Sur 8 Sur 0 -- -- 86
2019-10-03 06:00:00 5.1 3 Sur 6 Sur 0 -- -- 83
2019-10-03 05:00:00 5.8 3 Este 8 Nordeste 0 -- -- 82
2019-10-03 04:00:00 6.2 4 Sur 6 Sur 0 -- -- 80
2019-10-03 03:00:00 6.7 2 Sur 4 Sur 0 -- -- 78
2019-10-03 02:00:00 7 3 Sudeste 6 Sur 0 -- -- 75
2019-10-03 01:00:00 7.6 4 Sudeste 5 Sur 0 -- -- 73
2019-10-03 00:00:00 8.4 4 Sur 8 Sur 0 -- -- 70
2019-10-02 23:00:00 9.8 0 Calma 7 Sur 0 -- -- 64
2019-10-02 22:00:00 11.7 4 Sur 8 Sur 0 -- -- 59
2019-10-02 21:00:00 15.2 4 Sur 8 Sudeste 0 -- -- 49
2019-10-02 20:00:00 18.5 4 Norte 13 Norte 0 -- -- 41
2019-10-02 19:00:00 20 3 Norte 14 Norte 0 -- -- 38
2019-10-02 18:00:00 20.4 6 Norte 15 Norte 0 -- -- 37
2019-10-02 17:00:00 20.2 5 Norte 19 Norte 0 -- -- 38
2019-10-02 16:00:00 19.6 9 Norte 22 Norte 0 -- -- 40
2019-10-02 15:00:00 18.4 7 Norte 19 Norte 0 -- -- 46
2019-10-02 14:00:00 17.4 9 Nordeste 17 Este 0 -- -- 51
2019-10-02 13:00:00 16.2 6 Nordeste 18 Nordeste 0 -- -- 54
2019-10-02 12:00:00 14.3 5 Nordeste 13 Nordeste 0 -- -- 63
2019-10-02 11:00:00 12.3 8 Noroeste 13 Oeste 0 -- -- 78
2019-10-02 10:00:00 10.5 3 Sudoeste 7 Sudoeste 0 -- -- 92
2019-10-02 09:00:00 7.5 4 Sur 7 Sur 0 -- -- 94
2019-10-02 08:00:00 7.6 3 Sudoeste 9 Sudoeste 0 -- -- 92
2019-10-02 07:00:00 8.5 5 Sudoeste 12 Sudoeste 0 -- -- 92
2019-10-02 06:00:00 9.2 7 Sudoeste 15 Sudoeste 0 -- -- 91
2019-10-02 05:00:00 9.5 8 Oeste 14 Sudoeste 0 -- -- 89
2019-10-02 04:00:00 10.5 9 Sudoeste 15 Sudoeste 0 -- -- 86
2019-10-02 03:00:00 11.3 8 Sudoeste 17 Oeste 0 -- -- 83
2019-10-02 02:00:00 12.1 8 Oeste 15 Sudoeste 0 -- -- 80
2019-10-02 01:00:00 13.2 8 Sudoeste 20 Oeste 0 -- -- 74
2019-10-02 00:00:00 14.5 12 Oeste 23 Oeste 0 -- -- 69
2019-10-01 23:00:00 15.3 9 Oeste 21 Oeste 0 -- -- 64
2019-10-01 22:00:00 16.1 6 Oeste 14 Oeste 0 -- -- 58
2019-10-01 21:00:00 17.6 6 Oeste 18 Oeste 0 -- -- 54
2019-10-01 20:00:00 20.1 11 Oeste 31 Oeste 0 -- -- 48
2019-10-01 19:00:00 21.8 16 Oeste 36 Oeste 0 -- -- 43
2019-10-01 18:00:00 22.2 17 Oeste 32 Oeste 0 -- -- 45
2019-10-01 17:00:00 22 18 Oeste 32 Oeste 0 -- -- 45
2019-10-01 16:00:00 21.7 17 Oeste 34 Oeste 0 -- -- 50
2019-10-01 15:00:00 20.7 22 Oeste 34 Sudoeste 0 -- -- 54
2019-10-01 14:00:00 18.8 16 Noroeste 31 Noroeste 0 -- -- 62
2019-10-01 13:00:00 18.2 11 Noroeste 22 Noroeste 0 -- -- 67
2019-10-01 12:00:00 17.9 13 Noroeste 28 Sudoeste 0 -- -- 67
2019-10-01 11:00:00 16.6 11 Oeste 22 Oeste 0 -- -- 70
2019-10-01 10:00:00 14.9 12 Oeste 23 Oeste 0 -- -- 78
2019-10-01 09:00:00 14.8 12 Oeste 23 Oeste 0 -- -- 82
2019-10-01 08:00:00 14.7 12 Noroeste 22 Oeste 0 -- -- 84
2019-10-01 07:00:00 15.1 10 Oeste 21 Sudoeste 0 -- -- 86
2019-10-01 06:00:00 15.3 9 Oeste 28 Oeste 0 -- -- 90
2019-10-01 05:00:00 13.7 7 Oeste 12 Sudoeste 0 -- -- 90
2019-10-01 04:00:00 14 0 Calma 6 Sur 0 -- -- 83
2019-10-01 03:00:00 13.9 3 Sudeste 12 Sur 0 -- -- 80
2019-10-01 02:00:00 14.8 5 Sudoeste 9 Sudoeste 0 -- -- 74
2019-10-01 01:00:00 14.5 6 Sudoeste 8 Sudoeste 0 -- -- 59
2019-10-01 00:00:00 15.9 4 Sur 7 Sur 0 -- -- 49
2019-09-30 23:00:00 17.3 6 Sur 12 Sudoeste 0 -- -- 43
2019-09-30 22:00:00 19.6 9 Sur 15 Sur 0 -- -- 37
2019-09-30 21:00:00 21.7 12 Sur 21 Sudoeste 0 -- -- 34
2019-09-30 20:00:00 24.5 15 Sur 28 Sur 0 -- -- 31
2019-09-30 19:00:00 27.4 13 Sudoeste 26 Oeste 0 -- -- 30
2019-09-30 18:00:00 28.1 14 Oeste 35 Sudoeste 0 -- -- 31
2019-09-30 17:00:00 28.4 14 Oeste 29 Oeste 0 -- -- 33
2019-09-30 16:00:00 28.1 13 Oeste 27 Sudoeste 0 -- -- 31
2019-09-30 15:00:00 27.6 14 Oeste 28 Oeste 0 -- -- 31
2019-09-30 14:00:00 26.6 16 Oeste 26 Oeste 0 -- -- 35
2019-09-30 13:00:00 24.4 5 Sudeste 14 Este 0 -- -- 47
2019-09-30 12:00:00 21.9 6 Este 13 Este 0 -- -- 58
2019-09-30 11:00:00 19.1 7 Este 10 Este 0 -- -- 70
2019-09-30 10:00:00 13.2 0 Calma 4 Sur 0 -- -- 89
2019-09-30 09:00:00 8.8 2 Sur 6 Sur 0 -- -- 90
2019-09-30 08:00:00 8.5 5 Sur 7 Sur 0 -- -- 90
2019-09-30 07:00:00 8.9 0 Calma 6 Sur 0 -- -- 87
2019-09-30 06:00:00 9.4 3 Sur 5 Sur 0 -- -- 86
2019-09-30 05:00:00 10.1 4 Sur 5 Sur 0 -- -- 85
2019-09-30 04:00:00 10.6 4 Sur 8 Sur 0 -- -- 81
2019-09-30 03:00:00 11.1 6 Sur 10 Sur 0 -- -- 78
2019-09-30 02:00:00 11.5 3 Sur 6 Sur 0 -- -- 74
2019-09-30 01:00:00 12.2 4 Sudoeste 9 Sudoeste 0 -- -- 69
2019-09-30 00:00:00 13.3 4 Sur 8 Sur 0 -- -- 64
2019-09-29 23:00:00 14.5 6 Sur 10 Sur 0 -- -- 58
2019-09-29 22:00:00 16.6 4 Sur 8 Sur 0 -- -- 51
2019-09-29 21:00:00 20.5 4 Sur 9 Noroeste 0 -- -- 42
2019-09-29 20:00:00 24.6 6 Oeste 21 Sudoeste 0 -- -- 34
2019-09-29 19:00:00 26.6 11 Oeste 28 Oeste 0 -- -- 30
2019-09-29 18:00:00 27.1 10 Sudoeste 23 Oeste 0 -- -- 27
2019-09-29 17:00:00 27.4 15 Sudoeste 26 Oeste 0 -- -- 25
2019-09-29 16:00:00 26.9 14 Sudoeste 30 Oeste 0 -- -- 20
2019-09-29 15:00:00 26 13 Oeste 30 Sudoeste 0 -- -- 24
2019-09-29 14:00:00 25.4 17 Oeste 29 Oeste 0 -- -- 29
2019-09-29 13:00:00 23.8 14 Oeste 31 Oeste 0 -- -- 38
2019-09-29 12:00:00 21.4 11 Oeste 21 Oeste 0 -- -- 50
2019-09-29 11:00:00 19 9 Oeste 14 Oeste 0 -- -- 62
2019-09-29 10:00:00 12.9 5 Sur 9 Sur 0 -- -- 80
2019-09-29 09:00:00 7.4 3 Sudeste 6 Noroeste 0 -- -- 87
2019-09-29 08:00:00 6.9 4 Sur 8 Sur 0 -- -- 86
2019-09-29 07:00:00 7.4 3 Sur 5 Sudeste 0 -- -- 82
2019-09-29 06:00:00 8.1 2 Oeste 10 Sur 0 -- -- 79
2019-09-29 05:00:00 8 4 Sur 5 Sur 0 -- -- 79
2019-09-29 04:00:00 8.7 0 Calma 8 Sur 0 -- -- 75
2019-09-29 03:00:00 9.2 5 Sudeste 10 Sur 0 -- -- 74
2019-09-29 02:00:00 10 10 Sur 11 Sur 0 -- -- 72
2019-09-29 01:00:00 11.1 3 Sur 9 Sur 0 -- -- 67
2019-09-29 00:00:00 12.5 5 Sur 7 Sur 0 -- -- 62
2019-09-28 23:00:00 14.3 5 Sur 9 Sudoeste 0 -- -- 56
2019-09-28 22:00:00 17.4 4 Sur 6 Sur 0 -- -- 47
2019-09-28 21:00:00 19.8 4 Sudoeste 10 Sur 0 -- -- 41
2019-09-28 20:00:00 25.5 4 Oeste 16 Oeste 0 -- -- 28
2019-09-28 19:00:00 27.1 13 Oeste 23 Sudoeste 0 -- -- 24
2019-09-28 18:00:00 27.8 10 Oeste 22 Sudoeste 0 -- -- 24
2019-09-28 17:00:00 27.6 12 Sudoeste 19 Sudoeste 0 -- -- 24
2019-09-28 16:00:00 26.3 10 Oeste 21 Oeste 0 -- -- 33
2019-09-28 15:00:00 24.9 7 Este 22 Nordeste 0 -- -- 39
2019-09-28 14:00:00 23.1 4 Nordeste 12 Este 0 -- -- 47
2019-09-28 13:00:00 21.1 8 Este 17 Este 0 -- -- 54
2019-09-28 12:00:00 18.8 10 Este 17 Nordeste 0 -- -- 65
2019-09-28 11:00:00 16.3 11 Este 17 Este 0 -- -- 73
2019-09-28 10:00:00 10.8 0 Calma 3 Sur 0 -- -- 92
2019-09-28 09:00:00 6.4 2 Sur 6 Sur 0 -- -- 93
2019-09-28 08:00:00 5.9 0 Calma 3 Sur 0 -- -- 91
2019-09-28 07:00:00 6.5 0 Calma 6 Sur 0 -- -- 91
2019-09-28 06:00:00 7.2 4 Sur 6 Sur 0 -- -- 91
2019-09-28 05:00:00 7.8 4 Sur 5 Sur 0 -- -- 91
2019-09-28 04:00:00 8.5 3 Sur 5 Sur 0 -- -- 90
2019-09-28 03:00:00 9.4 3 Sur 10 Sur 0 -- -- 89
2019-09-28 02:00:00 10.3 5 Sur 9 Sur 0 -- -- 87
2019-09-28 01:00:00 11.2 5 Sur 9 Sur 0 -- -- 84
2019-09-28 00:00:00 11.9 6 Sur 9 Sudeste 0 -- -- 81
2019-09-27 23:00:00 13.3 4 Sudeste 6 Sur 0 -- -- 74
2019-09-27 22:00:00 16.1 3 Sudoeste 9 Noroeste 0 -- -- 65
2019-09-27 21:00:00 19.3 6 Noroeste 14 Noroeste 0 -- -- 57
2019-09-27 20:00:00 21.8 10 Noroeste 22 Oeste 0 -- -- 49
2019-09-27 19:00:00 23.4 12 Noroeste 24 Noroeste 0 -- -- 41
2019-09-27 18:00:00 24.5 13 Oeste 27 Oeste 0 -- -- 38
2019-09-27 17:00:00 24.5 13 Oeste 29 Noroeste 0 -- -- 33
2019-09-27 16:00:00 24.3 15 Oeste 25 Oeste 0 -- -- 33
2019-09-27 15:00:00 23.5 12 Oeste 24 Oeste 0 -- -- 35
2019-09-27 14:00:00 22.2 10 Oeste 24 Oeste 0 -- -- 42
2019-09-27 13:00:00 20.6 8 Noroeste 17 Noroeste 0 -- -- 46
2019-09-27 12:00:00 18.9 7 Oeste 14 Oeste 0 -- -- 55
2019-09-27 11:00:00 16.5 5 Oeste 13 Noroeste 0 -- -- 64
2019-09-27 10:00:00 11.9 0 Calma 6 Sur 0 -- -- 85
2019-09-27 09:00:00 7.1 2 Sudeste 5 Sur 0 -- -- 91
2019-09-27 08:00:00 6.3 0 Calma 7 Sur 0 -- -- 85
2019-09-27 07:00:00 7.3 4 Sur 7 Sudeste 0 -- -- 85
2019-09-27 06:00:00 7.4 2 Sur 6 Sur 0 -- -- 84
2019-09-27 05:00:00 7.7 6 Sur 7 Sur 0 -- -- 81
2019-09-27 04:00:00 7.9 3 Sur 8 Sur 0 -- -- 78
2019-09-27 03:00:00 8.6 3 Sur 9 Sur 0 -- -- 72
2019-09-27 02:00:00 9 6 Sur 9 Sur 0 -- -- 71
2019-09-27 01:00:00 9.7 5 Sur 9 Sur 0 -- -- 68
2019-09-27 00:00:00 10.5 5 Sur 13 Sur 0 -- -- 65
2019-09-26 23:00:00 12.3 8 Sur 10 Sur 0 -- -- 57
2019-09-26 22:00:00 14.4 5 Sur 9 Sur 0 -- -- 50
2019-09-26 21:00:00 18.9 3 Oeste 11 Oeste 0 -- -- 38
2019-09-26 20:00:00 23.2 8 Oeste 22 Oeste 0 -- -- 25
2019-09-26 19:00:00 24.8 11 Oeste 25 Noroeste 0 -- -- 26
2019-09-26 18:00:00 25.6 14 Oeste 28 Oeste 0 -- -- 27
2019-09-26 17:00:00 25.9 17 Oeste 31 Oeste 0 -- -- 26
2019-09-26 16:00:00 25.2 17 Oeste 32 Oeste 0 -- -- 34
2019-09-26 15:00:00 24.8 18 Oeste 31 Sudoeste 0 -- -- 40
2019-09-26 14:00:00 23.1 12 Oeste 23 Oeste 0 -- -- 43
2019-09-26 13:00:00 20.8 7 Oeste 15 Oeste 0 -- -- 50
2019-09-26 12:00:00 18.9 4 Oeste 14 Oeste 0 -- -- 62
2019-09-26 11:00:00 16.2 3 Oeste 8 Sur 0 -- -- 75
2019-09-26 10:00:00 12.4 4 Sur 9 Sur 0 -- -- 91
2019-09-26 09:00:00 8.6 4 Sur 6 Sur 0 -- -- 93
2019-09-26 08:00:00 8 5 Sur 7 Sur 0 -- -- 92
2019-09-26 07:00:00 8.5 0 Calma 8 Sur 0 -- -- 91
2019-09-26 06:00:00 9 4 Sur 5 Sur 0 -- -- 91
2019-09-26 05:00:00 9.4 4 Sur 6 Sur 0 -- -- 90
2019-09-26 04:00:00 10 4 Sur 6 Sur 0 -- -- 89
2019-09-26 03:00:00 10.2 4 Sur 6 Sudoeste 0 -- -- 87
2019-09-26 02:00:00 10.6 3 Sur 7 Sudoeste 0 -- -- 86
2019-09-26 01:00:00 11.8 2 Sur 6 Sur 0 -- -- 81
2019-09-26 00:00:00 12.5 3 Sur 8 Sur 0 -- -- 79
2019-09-25 23:00:00 13.5 2 Sur 8 Sur 0 -- -- 75
2019-09-25 22:00:00 15.1 3 Sudoeste 7 Sur 0 -- -- 67
2019-09-25 21:00:00 17.8 3 Oeste 12 Oeste 0 -- -- 56
2019-09-25 20:00:00 20.1 7 Oeste 17 Oeste 0 -- -- 50
2019-09-25 19:00:00 21.5 11 Oeste 18 Oeste 0 -- -- 47
2019-09-25 18:00:00 21.6 10 Oeste 19 Oeste 0 -- -- 46
2019-09-25 17:00:00 21.4 11 Oeste 18 Oeste 0 -- -- 48
2019-09-25 16:00:00 20.3 8 Oeste 19 Oeste 0 -- -- 49
2019-09-25 15:00:00 18.7 8 Oeste 16 Oeste 0 -- -- 54
2019-09-25 14:00:00 17.5 4 Sur 13 Oeste 0 -- -- 60
2019-09-25 13:00:00 16.3 5 Oeste 12 Norte 0 -- -- 64
2019-09-25 12:00:00 14.4 5 Oeste 18 Norte 0 -- -- 73
2019-09-25 11:00:00 12.9 10 Oeste 16 Oeste 0 -- -- 80
2019-09-25 10:00:00 11.2 7 Oeste 10 Oeste 0 -- -- 89
2019-09-25 09:00:00 8.3 3 Sur 7 Sur 0 -- -- 96
2019-09-25 08:00:00 7.7 4 Sur 9 Oeste 0 -- -- 93
2019-09-25 07:00:00 8.7 3 Sudoeste 10 Oeste 0 -- -- 93
2019-09-25 06:00:00 8.8 6 Sur 9 Sur 0 -- -- 94
2019-09-25 05:00:00 9 0 Calma 9 Sudoeste 0 -- -- 92
2019-09-25 04:00:00 9.5 5 Sur 8 Sur 0 -- -- 93
2019-09-25 03:00:00 10.3 4 Sudoeste 10 Oeste 0 -- -- 90
2019-09-25 02:00:00 10.8 3 Sur 11 Sudoeste 0 -- -- 87
2019-09-25 01:00:00 12 5 Sudoeste 12 Sudoeste 0 -- -- 87
2019-09-25 00:00:00 13.2 7 Sudoeste 13 Sudoeste 0 -- -- 84
2019-09-24 23:00:00 14.5 10 Sudoeste 20 Oeste 0 -- -- 81
2019-09-24 22:00:00 15.7 11 Sudoeste 28 Sudoeste 0 -- -- 77
2019-09-24 21:00:00 17 15 Oeste 31 Oeste 0 -- -- 75
2019-09-24 20:00:00 19 24 Oeste 39 Sudoeste 0 -- -- 66
2019-09-24 19:00:00 20.5 24 Oeste 44 Sudoeste 0 -- -- 63
2019-09-24 18:00:00 19.7 23 Oeste 51 Oeste 0.2 -- -- 74
2019-09-24 17:00:00 18.7 16 Sudoeste 29 Oeste 0 -- -- 87
2019-09-24 16:00:00 18.6 19 Oeste 39 Oeste 0 -- -- 84
2019-09-24 15:00:00 21.1 18 Sudoeste 35 Sudoeste 0 -- -- 65
2019-09-24 14:00:00 20.8 18 Oeste 28 Oeste 0 -- -- 67
2019-09-24 13:00:00 19.3 16 Oeste 30 Oeste 0 -- -- 70
2019-09-24 12:00:00 18.2 14 Oeste 25 Oeste 0 -- -- 71
2019-09-24 11:00:00 14.6 2 Este 6 Noroeste 0 -- -- 83
2019-09-24 10:00:00 12.2 4 Sudoeste 9 Sudoeste 0 -- -- 91
2019-09-24 09:00:00 9.6 5 Sur 9 Sur 0 -- -- 96
2019-09-24 08:00:00 8.1 4 Oeste 8 Sur 0 -- -- 93
2019-09-24 07:00:00 8.1 0 Calma 8 Sur 0 -- -- 91
2019-09-24 06:00:00 8.4 4 Sur 6 Sur 0 -- -- 91
2019-09-24 05:00:00 9.1 3 Sur 5 Sur 0 -- -- 90
2019-09-24 04:00:00 9.7 5 Sur 8 Sur 0 -- -- 88
2019-09-24 03:00:00 10.4 4 Sur 6 Sur 0 -- -- 87
2019-09-24 02:00:00 11 2 Sur 4 Sur 0 -- -- 84
2019-09-24 01:00:00 12.3 3 Sur 6 Sur 0 -- -- 78
2019-09-24 00:00:00 13.9 3 Sudoeste 10 Sur 0 -- -- 73
2019-09-23 23:00:00 14.9 7 Sur 11 Sudoeste 0 -- -- 73
2019-09-23 22:00:00 16.7 8 Sur 17 Sudoeste 0 -- -- 66
2019-09-23 21:00:00 18.6 6 Sur 11 Sur 0 -- -- 58
2019-09-23 20:00:00 21.4 6 Sudoeste 21 Oeste 0 -- -- 47
2019-09-23 19:00:00 22.2 14 Oeste 24 Oeste 0 -- -- 43
2019-09-23 18:00:00 22.3 15 Oeste 28 Noroeste 0 -- -- 40
2019-09-23 17:00:00 22.8 15 Sudoeste 29 Oeste 0 -- -- 34
2019-09-23 16:00:00 22 13 Sudoeste 31 Sudoeste 0 -- -- 37
2019-09-23 15:00:00 20.5 13 Sudoeste 27 Oeste 0 -- -- 41
2019-09-23 14:00:00 18.9 13 Oeste 23 Sudoeste 0 -- -- 51
2019-09-23 13:00:00 17.4 12 Sudoeste 19 Sudoeste 0 -- -- 61
2019-09-23 12:00:00 15.7 5 Sudoeste 14 Oeste 0 -- -- 69
2019-09-23 11:00:00 13.8 3 Sur 8 Sur 0 -- -- 81
2019-09-23 10:00:00 10.9 6 Sudoeste 9 Sudeste 0 -- -- 93
2019-09-23 09:00:00 8.7 2 Sudoeste 9 Sur 0 -- -- 95
2019-09-23 08:00:00 7.7 4 Sur 7 Sudeste 0 -- -- 94
2019-09-23 07:00:00 7.8 3 Este 4 Este 0 -- -- 92
2019-09-23 06:00:00 8.7 3 Sudeste 6 Sur 0 -- -- 92
2019-09-23 05:00:00 9.4 2 Sudoeste 7 Sudoeste 0 -- -- 90
2019-09-23 04:00:00 10.3 5 Sur 12 Sudoeste 0 -- -- 89
2019-09-23 03:00:00 11.2 10 Sudoeste 14 Sudoeste 0 -- -- 86
2019-09-23 02:00:00 11.4 5 Sudoeste 12 Sudoeste 0 -- -- 84
2019-09-23 01:00:00 11 6 Sudoeste 10 Sudoeste 0 -- -- 85
2019-09-23 00:00:00 10.6 3 Sur 9 Sur 0 -- -- 83
2019-09-22 23:00:00 11.2 5 Sur 9 Sur 0 -- -- 82
2019-09-22 22:00:00 12.8 4 Sudeste 9 Sudeste 0 -- -- 74
2019-09-22 21:00:00 15.3 4 Oeste 12 Noroeste 0 -- -- 61
2019-09-22 20:00:00 17.2 9 Oeste 23 Noroeste 0 -- -- 51
2019-09-22 19:00:00 18.3 16 Oeste 27 Oeste 0 -- -- 50
2019-09-22 18:00:00 18.9 15 Oeste 33 Oeste 0 -- -- 52
2019-09-22 17:00:00 19.1 22 Oeste 34 Sudoeste 0 -- -- 46
2019-09-22 16:00:00 18.1 21 Oeste 31 Oeste 0 -- -- 54
2019-09-22 15:00:00 18.1 17 Sudoeste 30 Sudoeste 0 -- -- 59
2019-09-22 14:00:00 16.5 18 Oeste 30 Oeste 0.2 -- -- 66
2019-09-22 13:00:00 15.2 15 Oeste 27 Noroeste 0 -- -- 73
2019-09-22 12:00:00 14.7 12 Oeste 19 Oeste 0 -- -- 84
2019-09-22 11:00:00 12.8 9 Oeste 25 Oeste 0 -- -- 91
2019-09-22 10:00:00 12.2 7 Sudoeste 16 Sudoeste 0 -- -- 93
2019-09-22 09:00:00 10 6 Sur 9 Sudoeste 0 -- -- 95
2019-09-22 08:00:00 9.8 3 Noroeste 7 Sudoeste 0 -- -- 94
2019-09-22 07:00:00 10.5 5 Sudoeste 17 Oeste 0 -- -- 94
2019-09-22 06:00:00 11 10 Sudoeste 18 Oeste 0 -- -- 93
2019-09-22 05:00:00 11.2 13 Oeste 24 Sudoeste 0 -- -- 94
2019-09-22 04:00:00 11.2 13 Oeste 23 Oeste 0 -- -- 94
2019-09-22 03:00:00 11.3 11 Sudoeste 29 Oeste 0.4 -- -- 94
2019-09-22 02:00:00 11.6 18 Oeste 49 Oeste 1.2 -- -- 91
2019-09-22 01:00:00 15.1 18 Oeste 36 Oeste 5.4 -- -- 90
2019-09-22 00:00:00 16.5 11 Oeste 30 Sudoeste 0.8 -- -- 91
2019-09-21 23:00:00 17.1 17 Sur 31 Sudoeste 0 -- -- 85
2019-09-21 22:00:00 16.7 21 Sur 32 Sur 0 -- -- 84
2019-09-21 21:00:00 16.7 18 Sudoeste 36 Sur 0 -- -- 81
2019-09-21 20:00:00 17 21 Sudoeste 35 Sudoeste 0 -- -- 80
2019-09-21 19:00:00 17.3 27 Sudoeste 40 Sur 0 -- -- 78
2019-09-21 18:00:00 17.5 23 Sur 37 Sur 0 -- -- 80
2019-09-21 17:00:00 16.9 26 Sur 43 Sur 0 -- -- 83
2019-09-21 16:00:00 18.1 32 Sur 49 Sudoeste 0 -- -- 73
2019-09-21 15:00:00 18.5 33 Sur 46 Sur 0 -- -- 71
2019-09-21 14:00:00 17.2 24 Sur 34 Sudoeste 0 -- -- 75
2019-09-21 13:00:00 16.1 19 Sur 38 Sur 0 -- -- 81
2019-09-21 12:00:00 15.9 26 Sur 38 Sur 0 -- -- 82
2019-09-21 11:00:00 15.2 18 Sudoeste 32 Sur 0.4 -- -- 87
2019-09-21 10:00:00 15.2 20 Sur 35 Sur 0.2 -- -- 84
2019-09-21 09:00:00 15.4 17 Sur 25 Sur 0 -- -- 82
2019-09-21 08:00:00 14.5 14 Sur 22 Sur 0 -- -- 83
2019-09-21 07:00:00 14.8 10 Sur 20 Sur 0 -- -- 79
2019-09-21 06:00:00 15 7 Sur 19 Sur 0 -- -- 76
2019-09-21 05:00:00 14.5 8 Sur 17 Sur 0 -- -- 79
2019-09-21 04:00:00 15.2 14 Sur 23 Sudoeste 0 -- -- 76
2019-09-21 03:00:00 15.6 9 Sur 25 Sur 0 -- -- 73
2019-09-21 02:00:00 16.6 12 Sur 21 Sudoeste 0 -- -- 69
2019-09-21 01:00:00 16.9 10 Sudoeste 16 Sur 0 -- -- 74
2019-09-21 00:00:00 17.5 8 Sur 15 Sur 0 -- -- 72
2019-09-20 23:00:00 17.7 6 Sur 16 Sur 0 -- -- 71
2019-09-20 22:00:00 18.4 9 Sur 18 Sur 0 -- -- 64
2019-09-20 21:00:00 19.5 9 Sudoeste 19 Sur 0 -- -- 59
2019-09-20 20:00:00 21.6 15 Sur 30 Sur 0 -- -- 54
2019-09-20 19:00:00 22.1 24 Sur 39 Sudoeste 0 -- -- 52
2019-09-20 18:00:00 24 18 Sur 34 Sudoeste 0 -- -- 44
2019-09-20 17:00:00 24.6 23 Sudoeste 34 Sur 0 -- -- 43
2019-09-20 16:00:00 24.3 14 Sur 30 Sur 0 -- -- 44
2019-09-20 15:00:00 24 16 Sudoeste 32 Sudoeste 0 -- -- 45
2019-09-20 14:00:00 23.7 23 Sur 38 Sur 0 -- -- 44
2019-09-20 13:00:00 23.8 22 Sur 38 Sur 0 -- -- 40
2019-09-20 12:00:00 22.4 15 Sudoeste 23 Sudoeste 0 -- -- 48
2019-09-20 11:00:00 20.8 7 Sudoeste 14 Sur 0 -- -- 59
2019-09-20 10:00:00 17.2 5 Sudoeste 9 Sudoeste 0 -- -- 76
2019-09-20 09:00:00 13.5 3 Oeste 5 Oeste 0 -- -- 89
2019-09-20 08:00:00 13.2 2 Oeste 5 Sur 0 -- -- 87
2019-09-20 07:00:00 13.3 2 Sur 6 Sur 0 -- -- 89
2019-09-20 06:00:00 12.7 0 Calma 8 Sur 0 -- -- 88
2019-09-20 05:00:00 12.9 3 Sur 8 Sur 0 -- -- 87
2019-09-20 04:00:00 13.8 3 Sur 6 Sur 0 -- -- 85
2019-09-20 03:00:00 14.4 3 Sur 13 Oeste 0 -- -- 84
2019-09-20 02:00:00 15.1 4 Nordeste 5 Nordeste 0 -- -- 81
2019-09-20 01:00:00 15.6 0 Calma 5 Sur 0 -- -- 82
2019-09-20 00:00:00 16.3 0 Calma 5 Sudoeste 0 -- -- 78
2019-09-19 23:00:00 17.8 3 Sur 11 Sur 0 -- -- 73
2019-09-19 22:00:00 19.7 4 Sur 12 Norte 0 -- -- 71
2019-09-19 21:00:00 22.1 10 Sudoeste 20 Oeste 0 -- -- 58
2019-09-19 20:00:00 23.9 7 Este 18 Nordeste 0 -- -- 45
2019-09-19 19:00:00 25.8 13 Este 19 Nordeste 0 -- -- 39
2019-09-19 18:00:00 25.9 6 Noroeste 17 Este 0 -- -- 40
2019-09-19 17:00:00 26.2 7 Este 18 Nordeste 0 -- -- 42
2019-09-19 16:00:00 27 6 Nordeste 19 Este 0 -- -- 39
2019-09-19 15:00:00 25.8 6 Sur 20 Nordeste 0 -- -- 41
2019-09-19 14:00:00 24.9 9 Sudeste 24 Nordeste 0 -- -- 46
2019-09-19 13:00:00 23.6 12 Este 30 Nordeste 0 -- -- 51
2019-09-19 12:00:00 21.4 12 Este 17 Este 0 -- -- 60
2019-09-19 11:00:00 18.2 11 Este 17 Este 0 -- -- 74
2019-09-19 10:00:00 13 0 Calma 4 Sur 0 -- -- 91
2019-09-19 09:00:00 10.6 0 Calma 3 Sur 0 -- -- 92
2019-09-19 08:00:00 9.8 0 Calma 5 Sur 0 -- -- 90
2019-09-19 07:00:00 10.3 4 Sur 5 Sur 0 -- -- 90
2019-09-19 06:00:00 10.8 0 Calma 7 Sur 0 -- -- 90
2019-09-19 05:00:00 11.3 3 Sur 6 Sur 0 -- -- 89
2019-09-19 04:00:00 11.9 3 Sur 4 Sur 0 -- -- 87
2019-09-19 03:00:00 12.9 0 Calma 4 Sur 0 -- -- 84
2019-09-19 02:00:00 13.7 3 Sur 5 Sur 0 -- -- 83
2019-09-19 01:00:00 14.5 3 Sur 6 Sur 0 -- -- 81
2019-09-19 00:00:00 15.2 3 Sur 6 Sur 0 -- -- 78
2019-09-18 23:00:00 16.7 0 Calma 4 Nordeste 0 -- -- 71
2019-09-18 22:00:00 18.7 2 Sur 11 Este 0 -- -- 63
2019-09-18 21:00:00 20.9 9 Este 16 Este 0 -- -- 57
2019-09-18 20:00:00 23.8 10 Este 20 Este 0 -- -- 48
2019-09-18 19:00:00 25.1 4 Norte 12 Oeste 0 -- -- 43
2019-09-18 18:00:00 25.3 6 Norte 18 Noroeste 0 -- -- 42
2019-09-18 17:00:00 24.9 9 Norte 19 Norte 0 -- -- 44
2019-09-18 16:00:00 24.5 5 Noroeste 19 Este 0 -- -- 43
2019-09-18 15:00:00 24.1 6 Norte 15 Este -- -- -- 46
2019-09-18 14:00:00 22.8 6 Norte 19 Este 0 -- -- 54
2019-09-18 13:00:00 21.4 5 Este 16 Este 0 -- -- 59
2019-09-18 12:00:00 19.4 13 Este 18 Este 0 -- -- 67
2019-09-18 11:00:00 16.9 10 Este 17 Este 0 -- -- 81
2019-09-18 10:00:00 14.9 8 Este 13 Este 0 -- -- 89
2019-09-18 09:00:00 12 2 Sudeste 7 Sur 0 -- -- 95
2019-09-18 08:00:00 11.9 0 Calma 6 Nordeste 0 -- -- 91
2019-09-18 07:00:00 12.9 2 Sudeste 10 Este 0 -- -- 92
2019-09-18 06:00:00 13.1 9 Este 13 Este 0 -- -- 90
2019-09-18 05:00:00 12.8 3 Norte 9 Sur 0 -- -- 93
2019-09-18 04:00:00 13.4 2 Nordeste 6 Nordeste 0 -- -- 91
2019-09-18 03:00:00 14.4 3 Sur 14 Este 0 -- -- 88
2019-09-18 02:00:00 14.7 4 Sur 17 Norte 0 -- -- 87
2019-09-18 01:00:00 15.2 2 Sudoeste 13 Sur 0 -- -- 81
2019-09-18 00:00:00 15.4 2 Noroeste 30 Nordeste 0 -- -- 81
2019-09-17 23:00:00 15.9 17 Este 29 Este 1.8 -- -- 74
2019-09-17 22:00:00 16.6 19 Este 41 Sudeste 0 -- -- 71
2019-09-17 21:00:00 17.3 18 Sudeste 36 Sudeste 0 -- -- 74